sensor_id;sensor_type;location;lat;lon;timestamp;temperature;humidity
22153;DHT22;11242;50.536;12.688;2024-01-06T00:01:21;1.50;99.90
22153;DHT22;11242;50.536;12.688;2024-01-06T00:03:47;1.40;99.90
22153;DHT22;11242;50.536;12.688;2024-01-06T00:06:15;1.40;99.90
22153;DHT22;11242;50.536;12.688;2024-01-06T00:08:41;1.40;99.90
22153;DHT22;11242;50.536;12.688;2024-01-06T00:11:07;1.30;99.90
22153;DHT22;11242;50.536;12.688;2024-01-06T00:13:32;1.30;99.90
22153;DHT22;11242;50.536;12.688;2024-01-06T00:15:58;1.20;99.90
22153;DHT22;11242;50.536;12.688;2024-01-06T00:18:24;1.30;99.90
22153;DHT22;11242;50.536;12.688;2024-01-06T00:20:49;1.30;99.90
22153;DHT22;11242;50.536;12.688;2024-01-06T00:23:15;1.30;99.90
22153;DHT22;11242;50.536;12.688;2024-01-06T00:25:40;1.30;99.90
22153;DHT22;11242;50.536;12.688;2024-01-06T00:28:06;1.30;99.90
22153;DHT22;11242;50.536;12.688;2024-01-06T00:30:31;1.30;99.90
22153;DHT22;11242;50.536;12.688;2024-01-06T00:32:57;1.30;99.90
22153;DHT22;11242;50.536;12.688;2024-01-06T00:35:22;1.30;99.90
22153;DHT22;11242;50.536;12.688;2024-01-06T00:37:48;1.30;99.90
22153;DHT22;11242;50.536;12.688;2024-01-06T00:40:13;1.30;99.90
22153;DHT22;11242;50.536;12.688;2024-01-06T00:42:39;1.30;99.90
22153;DHT22;11242;50.536;12.688;2024-01-06T00:45:05;1.40;99.90
22153;DHT22;11242;50.536;12.688;2024-01-06T00:47:31;1.40;99.90
22153;DHT22;11242;50.536;12.688;2024-01-06T00:52:28;1.40;99.90
22153;DHT22;11242;50.536;12.688;2024-01-06T00:54:53;1.40;99.90
22153;DHT22;11242;50.536;12.688;2024-01-06T00:57:19;1.40;99.90
22153;DHT22;11242;50.536;12.688;2024-01-06T00:59:49;1.40;99.90
22153;DHT22;11242;50.536;12.688;2024-01-06T01:02:15;1.30;99.90
22153;DHT22;11242;50.536;12.688;2024-01-06T01:04:40;1.40;99.90
22153;DHT22;11242;50.536;12.688;2024-01-06T01:07:06;1.30;99.90
22153;DHT22;11242;50.536;12.688;2024-01-06T01:09:31;1.30;99.90
22153;DHT22;11242;50.536;12.688;2024-01-06T01:11:57;1.30;99.90
22153;DHT22;11242;50.536;12.688;2024-01-06T01:14:22;1.20;99.90
22153;DHT22;11242;50.536;12.688;2024-01-06T01:16:48;1.10;99.90
22153;DHT22;11242;50.536;12.688;2024-01-06T01:19:13;1.10;99.90
22153;DHT22;11242;50.536;12.688;2024-01-06T01:21:39;1.00;99.90
22153;DHT22;11242;50.536;12.688;2024-01-06T01:24:05;0.90;99.90
22153;DHT22;11242;50.536;12.688;2024-01-06T01:26:30;0.90;99.90
22153;DHT22;11242;50.536;12.688;2024-01-06T01:28:56;0.80;99.90
22153;DHT22;11242;50.536;12.688;2024-01-06T01:31:22;0.90;99.90
22153;DHT22;11242;50.536;12.688;2024-01-06T01:33:47;0.90;99.90
22153;DHT22;11242;50.536;12.688;2024-01-06T01:36:13;0.90;99.90
22153;DHT22;11242;50.536;12.688;2024-01-06T01:38:38;0.90;99.90
22153;DHT22;11242;50.536;12.688;2024-01-06T01:41:04;0.90;99.90
22153;DHT22;11242;50.536;12.688;2024-01-06T01:43:29;0.90;99.90
22153;DHT22;11242;50.536;12.688;2024-01-06T01:45:56;0.80;99.90
22153;DHT22;11242;50.536;12.688;2024-01-06T01:48:22;0.80;99.90
22153;DHT22;11242;50.536;12.688;2024-01-06T01:50:49;0.80;99.90
22153;DHT22;11242;50.536;12.688;2024-01-06T01:53:14;0.80;99.90
22153;DHT22;11242;50.536;12.688;2024-01-06T01:55:41;0.80;99.90
22153;DHT22;11242;50.536;12.688;2024-01-06T01:58:07;0.90;99.90
22153;DHT22;11242;50.536;12.688;2024-01-06T02:00:33;0.90;99.90
22153;DHT22;11242;50.536;12.688;2024-01-06T02:02:59;1.00;99.90
22153;DHT22;11242;50.536;12.688;2024-01-06T02:05:26;1.00;99.90
22153;DHT22;11242;50.536;12.688;2024-01-06T02:07:51;1.00;99.90
22153;DHT22;11242;50.536;12.688;2024-01-06T02:10:17;1.00;99.90
22153;DHT22;11242;50.536;12.688;2024-01-06T02:12:43;1.00;99.90
22153;DHT22;11242;50.536;12.688;2024-01-06T02:15:09;1.00;99.90
22153;DHT22;11242;50.536;12.688;2024-01-06T02:17:34;0.90;99.90
22153;DHT22;11242;50.536;12.688;2024-01-06T02:20:00;0.90;99.90
22153;DHT22;11242;50.536;12.688;2024-01-06T02:22:25;0.90;99.90
22153;DHT22;11242;50.536;12.688;2024-01-06T02:24:51;0.90;99.90
22153;DHT22;11242;50.536;12.688;2024-01-06T02:27:16;0.90;99.90
22153;DHT22;11242;50.536;12.688;2024-01-06T02:29:42;0.90;99.90
22153;DHT22;11242;50.536;12.688;2024-01-06T02:32:07;0.90;99.90
22153;DHT22;11242;50.536;12.688;2024-01-06T02:34:33;0.80;99.90
22153;DHT22;11242;50.536;12.688;2024-01-06T02:37:00;0.70;99.90
22153;DHT22;11242;50.536;12.688;2024-01-06T02:39:25;0.70;99.90
22153;DHT22;11242;50.536;12.688;2024-01-06T02:41:51;0.60;99.90
22153;DHT22;11242;50.536;12.688;2024-01-06T02:44:16;0.70;99.90
22153;DHT22;11242;50.536;12.688;2024-01-06T02:46:42;0.80;99.90
22153;DHT22;11242;50.536;12.688;2024-01-06T02:49:07;0.70;99.90
22153;DHT22;11242;50.536;12.688;2024-01-06T02:51:33;0.60;99.90
22153;DHT22;11242;50.536;12.688;2024-01-06T02:53:58;0.50;99.90
22153;DHT22;11242;50.536;12.688;2024-01-06T02:56:24;0.40;99.90
22153;DHT22;11242;50.536;12.688;2024-01-06T02:58:50;0.40;99.90
22153;DHT22;11242;50.536;12.688;2024-01-06T03:01:15;0.40;99.90
22153;DHT22;11242;50.536;12.688;2024-01-06T03:03:41;0.40;99.90
22153;DHT22;11242;50.536;12.688;2024-01-06T03:06:06;0.40;99.90
22153;DHT22;11242;50.536;12.688;2024-01-06T03:08:32;0.50;99.90
22153;DHT22;11242;50.536;12.688;2024-01-06T03:10:57;0.60;99.90
22153;DHT22;11242;50.536;12.688;2024-01-06T03:13:23;0.70;99.90
22153;DHT22;11242;50.536;12.688;2024-01-06T03:15:48;0.80;99.90
22153;DHT22;11242;50.536;12.688;2024-01-06T03:18:14;0.80;99.90
22153;DHT22;11242;50.536;12.688;2024-01-06T03:20:40;0.90;99.90
22153;DHT22;11242;50.536;12.688;2024-01-06T03:23:05;0.90;99.90
22153;DHT22;11242;50.536;12.688;2024-01-06T03:25:31;0.90;99.90
22153;DHT22;11242;50.536;12.688;2024-01-06T03:27:56;0.90;99.90
22153;DHT22;11242;50.536;12.688;2024-01-06T03:30:22;1.00;99.90
22153;DHT22;11242;50.536;12.688;2024-01-06T03:32:47;1.10;99.90
22153;DHT22;11242;50.536;12.688;2024-01-06T03:35:13;1.20;99.90
22153;DHT22;11242;50.536;12.688;2024-01-06T03:37:38;1.20;99.90
22153;DHT22;11242;50.536;12.688;2024-01-06T03:40:04;1.20;99.90
22153;DHT22;11242;50.536;12.688;2024-01-06T03:42:30;1.30;99.90
22153;DHT22;11242;50.536;12.688;2024-01-06T03:44:56;1.30;99.90
22153;DHT22;11242;50.536;12.688;2024-01-06T03:47:21;1.30;99.90
22153;DHT22;11242;50.536;12.688;2024-01-06T03:49:47;1.40;99.90
22153;DHT22;11242;50.536;12.688;2024-01-06T03:52:13;1.40;99.90
22153;DHT22;11242;50.536;12.688;2024-01-06T03:54:39;1.50;99.90
22153;DHT22;11242;50.536;12.688;2024-01-06T03:57:04;1.50;99.90
22153;DHT22;11242;50.536;12.688;2024-01-06T03:59:30;1.50;99.90
22153;DHT22;11242;50.536;12.688;2024-01-06T04:01:56;1.50;99.90
22153;DHT22;11242;50.536;12.688;2024-01-06T04:04:21;1.50;99.90
22153;DHT22;11242;50.536;12.688;2024-01-06T04:06:47;1.50;99.90
22153;DHT22;11242;50.536;12.688;2024-01-06T04:09:12;1.50;99.90
22153;DHT22;11242;50.536;12.688;2024-01-06T04:11:38;1.50;99.90
22153;DHT22;11242;50.536;12.688;2024-01-06T04:14:03;1.50;99.90
22153;DHT22;11242;50.536;12.688;2024-01-06T04:16:29;1.40;99.90
22153;DHT22;11242;50.536;12.688;2024-01-06T04:18:54;1.40;99.90
22153;DHT22;11242;50.536;12.688;2024-01-06T04:21:20;1.50;99.90
22153;DHT22;11242;50.536;12.688;2024-01-06T04:23:45;1.50;99.90
22153;DHT22;11242;50.536;12.688;2024-01-06T04:26:11;1.50;99.90
22153;DHT22;11242;50.536;12.688;2024-01-06T04:28:37;1.50;99.90
22153;DHT22;11242;50.536;12.688;2024-01-06T04:31:03;1.60;99.90
22153;DHT22;11242;50.536;12.688;2024-01-06T04:33:28;1.60;99.90
22153;DHT22;11242;50.536;12.688;2024-01-06T04:35:54;1.60;99.90
22153;DHT22;11242;50.536;12.688;2024-01-06T04:38:19;1.60;99.90
22153;DHT22;11242;50.536;12.688;2024-01-06T04:40:45;1.60;99.90
22153;DHT22;11242;50.536;12.688;2024-01-06T04:43:11;1.60;99.90
22153;DHT22;11242;50.536;12.688;2024-01-06T04:45:36;1.40;99.90
22153;DHT22;11242;50.536;12.688;2024-01-06T04:48:03;1.40;99.90
22153;DHT22;11242;50.536;12.688;2024-01-06T04:50:29;1.40;99.90
22153;DHT22;11242;50.536;12.688;2024-01-06T04:52:54;1.30;99.90
22153;DHT22;11242;50.536;12.688;2024-01-06T04:55:20;1.30;99.90
22153;DHT22;11242;50.536;12.688;2024-01-06T04:57:45;1.20;99.90
22153;DHT22;11242;50.536;12.688;2024-01-06T05:00:11;1.30;99.90
22153;DHT22;11242;50.536;12.688;2024-01-06T05:02:37;1.30;99.90
22153;DHT22;11242;50.536;12.688;2024-01-06T05:05:03;1.30;99.90
22153;DHT22;11242;50.536;12.688;2024-01-06T05:07:29;1.30;99.90
22153;DHT22;11242;50.536;12.688;2024-01-06T05:09:54;1.30;99.90
22153;DHT22;11242;50.536;12.688;2024-01-06T05:12:21;1.30;99.90
22153;DHT22;11242;50.536;12.688;2024-01-06T05:14:46;1.20;99.90
22153;DHT22;11242;50.536;12.688;2024-01-06T05:17:12;1.20;99.90
22153;DHT22;11242;50.536;12.688;2024-01-06T05:19:37;1.00;99.90
22153;DHT22;11242;50.536;12.688;2024-01-06T05:22:03;0.90;99.90
22153;DHT22;11242;50.536;12.688;2024-01-06T05:24:29;0.80;99.90
22153;DHT22;11242;50.536;12.688;2024-01-06T05:26:54;0.70;99.90
22153;DHT22;11242;50.536;12.688;2024-01-06T05:29:20;0.70;99.90
22153;DHT22;11242;50.536;12.688;2024-01-06T05:31:45;0.60;99.90
22153;DHT22;11242;50.536;12.688;2024-01-06T05:34:13;0.60;99.90
22153;DHT22;11242;50.536;12.688;2024-01-06T05:36:39;0.50;99.90
22153;DHT22;11242;50.536;12.688;2024-01-06T05:39:04;0.50;99.90
22153;DHT22;11242;50.536;12.688;2024-01-06T05:41:30;0.40;99.90
22153;DHT22;11242;50.536;12.688;2024-01-06T05:44:02;0.40;99.90
22153;DHT22;11242;50.536;12.688;2024-01-06T05:46:27;0.30;99.90
22153;DHT22;11242;50.536;12.688;2024-01-06T05:48:53;0.30;99.90
22153;DHT22;11242;50.536;12.688;2024-01-06T05:51:21;0.30;99.90
22153;DHT22;11242;50.536;12.688;2024-01-06T05:53:47;0.30;99.90
22153;DHT22;11242;50.536;12.688;2024-01-06T05:56:22;0.40;99.90
22153;DHT22;11242;50.536;12.688;2024-01-06T05:58:49;0.40;99.90
22153;DHT22;11242;50.536;12.688;2024-01-06T06:01:15;0.50;99.90
22153;DHT22;11242;50.536;12.688;2024-01-06T06:03:40;0.60;99.90
22153;DHT22;11242;50.536;12.688;2024-01-06T06:06:06;0.70;99.90
22153;DHT22;11242;50.536;12.688;2024-01-06T06:08:31;0.70;99.90
22153;DHT22;11242;50.536;12.688;2024-01-06T06:10:57;0.80;99.90
22153;DHT22;11242;50.536;12.688;2024-01-06T06:13:42;0.70;99.90
22153;DHT22;11242;50.536;12.688;2024-01-06T06:16:09;0.70;99.90
22153;DHT22;11242;50.536;12.688;2024-01-06T06:18:35;0.70;99.90
22153;DHT22;11242;50.536;12.688;2024-01-06T06:21:01;0.80;99.90
22153;DHT22;11242;50.536;12.688;2024-01-06T06:23:29;0.90;99.90
22153;DHT22;11242;50.536;12.688;2024-01-06T06:25:54;1.00;99.90
22153;DHT22;11242;50.536;12.688;2024-01-06T06:28:20;1.00;99.90
22153;DHT22;11242;50.536;12.688;2024-01-06T06:30:45;1.00;99.90
22153;DHT22;11242;50.536;12.688;2024-01-06T06:33:11;1.00;99.90
22153;DHT22;11242;50.536;12.688;2024-01-06T06:35:36;1.00;99.90
22153;DHT22;11242;50.536;12.688;2024-01-06T06:38:02;0.90;99.90
22153;DHT22;11242;50.536;12.688;2024-01-06T06:40:28;0.90;99.90
22153;DHT22;11242;50.536;12.688;2024-01-06T06:42:54;1.00;99.90
22153;DHT22;11242;50.536;12.688;2024-01-06T06:45:19;1.00;99.90
22153;DHT22;11242;50.536;12.688;2024-01-06T06:47:48;1.00;99.90
22153;DHT22;11242;50.536;12.688;2024-01-06T06:50:17;0.90;99.90
22153;DHT22;11242;50.536;12.688;2024-01-06T06:52:43;0.80;99.90
22153;DHT22;11242;50.536;12.688;2024-01-06T06:55:09;0.70;99.90
22153;DHT22;11242;50.536;12.688;2024-01-06T06:57:35;0.60;99.90
22153;DHT22;11242;50.536;12.688;2024-01-06T07:00:01;0.50;99.90
22153;DHT22;11242;50.536;12.688;2024-01-06T07:02:27;0.50;99.90
22153;DHT22;11242;50.536;12.688;2024-01-06T07:04:52;0.50;99.90
22153;DHT22;11242;50.536;12.688;2024-01-06T07:07:19;0.50;99.90
22153;DHT22;11242;50.536;12.688;2024-01-06T07:09:44;0.40;99.90
22153;DHT22;11242;50.536;12.688;2024-01-06T07:12:10;0.40;99.90
22153;DHT22;11242;50.536;12.688;2024-01-06T07:14:35;0.30;99.90
22153;DHT22;11242;50.536;12.688;2024-01-06T07:17:03;0.30;99.90
22153;DHT22;11242;50.536;12.688;2024-01-06T07:19:30;0.30;99.90
22153;DHT22;11242;50.536;12.688;2024-01-06T07:21:56;0.30;99.90
22153;DHT22;11242;50.536;12.688;2024-01-06T07:24:21;0.20;99.90
22153;DHT22;11242;50.536;12.688;2024-01-06T07:26:47;0.20;99.90
22153;DHT22;11242;50.536;12.688;2024-01-06T07:29:12;0.10;99.90
22153;DHT22;11242;50.536;12.688;2024-01-06T07:31:38;0.10;99.90
22153;DHT22;11242;50.536;12.688;2024-01-06T07:34:03;0.10;99.90
22153;DHT22;11242;50.536;12.688;2024-01-06T07:36:29;0.00;99.90
22153;DHT22;11242;50.536;12.688;2024-01-06T07:38:54;0.00;99.90
22153;DHT22;11242;50.536;12.688;2024-01-06T07:41:21;0.00;99.90
22153;DHT22;11242;50.536;12.688;2024-01-06T07:43:46;-0.10;99.90
22153;DHT22;11242;50.536;12.688;2024-01-06T07:46:12;-0.10;99.90
22153;DHT22;11242;50.536;12.688;2024-01-06T07:48:38;-0.20;99.90
22153;DHT22;11242;50.536;12.688;2024-01-06T07:51:03;-0.20;99.90
22153;DHT22;11242;50.536;12.688;2024-01-06T07:53:29;-0.30;99.90
22153;DHT22;11242;50.536;12.688;2024-01-06T07:55:55;-0.30;99.90
22153;DHT22;11242;50.536;12.688;2024-01-06T07:58:20;-0.20;99.90
22153;DHT22;11242;50.536;12.688;2024-01-06T08:00:47;-0.10;99.90
22153;DHT22;11242;50.536;12.688;2024-01-06T08:03:13;-0.10;99.90
22153;DHT22;11242;50.536;12.688;2024-01-06T08:05:38;-0.10;99.90
22153;DHT22;11242;50.536;12.688;2024-01-06T08:08:05;-0.10;99.90
22153;DHT22;11242;50.536;12.688;2024-01-06T08:10:30;0.10;99.90
22153;DHT22;11242;50.536;12.688;2024-01-06T08:12:56;0.40;99.90
22153;DHT22;11242;50.536;12.688;2024-01-06T08:15:22;0.60;99.90
22153;DHT22;11242;50.536;12.688;2024-01-06T08:17:47;0.90;99.90
22153;DHT22;11242;50.536;12.688;2024-01-06T08:20:13;1.50;99.90
22153;DHT22;11242;50.536;12.688;2024-01-06T08:22:39;1.70;99.90
22153;DHT22;11242;50.536;12.688;2024-01-06T08:25:04;2.00;99.90
22153;DHT22;11242;50.536;12.688;2024-01-06T08:27:32;2.40;99.90
22153;DHT22;11242;50.536;12.688;2024-01-06T08:29:58;2.30;99.90
22153;DHT22;11242;50.536;12.688;2024-01-06T08:32:23;1.80;99.90
22153;DHT22;11242;50.536;12.688;2024-01-06T08:34:50;1.50;99.90
22153;DHT22;11242;50.536;12.688;2024-01-06T08:37:16;1.60;99.90
22153;DHT22;11242;50.536;12.688;2024-01-06T08:39:41;2.80;99.90
22153;DHT22;11242;50.536;12.688;2024-01-06T08:42:07;4.00;99.90
22153;DHT22;11242;50.536;12.688;2024-01-06T08:44:32;4.70;99.90
22153;DHT22;11242;50.536;12.688;2024-01-06T08:46:58;4.90;99.90
22153;DHT22;11242;50.536;12.688;2024-01-06T08:49:23;5.20;99.90
22153;DHT22;11242;50.536;12.688;2024-01-06T08:51:49;5.60;99.90
22153;DHT22;11242;50.536;12.688;2024-01-06T08:54:15;6.30;99.90
22153;DHT22;11242;50.536;12.688;2024-01-06T08:56:41;6.90;99.90
22153;DHT22;11242;50.536;12.688;2024-01-06T08:59:06;6.30;99.90
22153;DHT22;11242;50.536;12.688;2024-01-06T09:01:32;5.10;99.90
22153;DHT22;11242;50.536;12.688;2024-01-06T09:03:59;4.40;99.90
22153;DHT22;11242;50.536;12.688;2024-01-06T09:06:25;4.00;99.90
22153;DHT22;11242;50.536;12.688;2024-01-06T09:08:50;3.90;99.90
22153;DHT22;11242;50.536;12.688;2024-01-06T09:11:16;3.80;99.90
22153;DHT22;11242;50.536;12.688;2024-01-06T09:13:41;3.80;99.90
22153;DHT22;11242;50.536;12.688;2024-01-06T09:16:07;3.70;99.90
22153;DHT22;11242;50.536;12.688;2024-01-06T09:18:32;3.60;99.90
22153;DHT22;11242;50.536;12.688;2024-01-06T09:20:58;3.70;99.90
22153;DHT22;11242;50.536;12.688;2024-01-06T09:23:23;3.80;99.90
22153;DHT22;11242;50.536;12.688;2024-01-06T09:25:49;3.70;99.90
22153;DHT22;11242;50.536;12.688;2024-01-06T09:28:15;3.50;99.90
22153;DHT22;11242;50.536;12.688;2024-01-06T09:30:41;3.60;99.90
22153;DHT22;11242;50.536;12.688;2024-01-06T09:33:06;3.80;99.90
22153;DHT22;11242;50.536;12.688;2024-01-06T09:35:33;3.90;99.90
22153;DHT22;11242;50.536;12.688;2024-01-06T09:37:59;3.80;99.90
22153;DHT22;11242;50.536;12.688;2024-01-06T09:40:24;3.90;99.90
22153;DHT22;11242;50.536;12.688;2024-01-06T09:42:51;4.00;99.90
22153;DHT22;11242;50.536;12.688;2024-01-06T09:45:16;4.10;99.90
22153;DHT22;11242;50.536;12.688;2024-01-06T09:47:42;3.90;99.90
22153;DHT22;11242;50.536;12.688;2024-01-06T09:50:11;3.70;99.90
22153;DHT22;11242;50.536;12.688;2024-01-06T09:52:41;3.60;99.90
22153;DHT22;11242;50.536;12.688;2024-01-06T09:55:11;3.60;99.90
22153;DHT22;11242;50.536;12.688;2024-01-06T09:57:37;3.60;99.90
22153;DHT22;11242;50.536;12.688;2024-01-06T10:00:03;3.60;99.90
22153;DHT22;11242;50.536;12.688;2024-01-06T10:02:37;3.50;99.90
22153;DHT22;11242;50.536;12.688;2024-01-06T10:05:03;3.60;99.90
22153;DHT22;11242;50.536;12.688;2024-01-06T10:07:29;3.60;99.90
22153;DHT22;11242;50.536;12.688;2024-01-06T10:09:55;3.70;99.90
22153;DHT22;11242;50.536;12.688;2024-01-06T10:12:25;3.80;99.90
22153;DHT22;11242;50.536;12.688;2024-01-06T10:14:51;3.80;99.90
22153;DHT22;11242;50.536;12.688;2024-01-06T10:17:16;3.90;99.90
22153;DHT22;11242;50.536;12.688;2024-01-06T10:19:47;3.90;99.90
22153;DHT22;11242;50.536;12.688;2024-01-06T10:22:14;4.10;99.90
22153;DHT22;11242;50.536;12.688;2024-01-06T10:24:40;4.20;99.90
22153;DHT22;11242;50.536;12.688;2024-01-06T10:27:06;4.40;99.90
22153;DHT22;11242;50.536;12.688;2024-01-06T10:29:31;4.50;99.90
22153;DHT22;11242;50.536;12.688;2024-01-06T10:31:58;4.50;99.90
22153;DHT22;11242;50.536;12.688;2024-01-06T10:34:24;4.60;99.90
22153;DHT22;11242;50.536;12.688;2024-01-06T10:36:50;4.60;99.90
22153;DHT22;11242;50.536;12.688;2024-01-06T10:39:20;4.70;99.90
22153;DHT22;11242;50.536;12.688;2024-01-06T10:41:48;4.80;99.90
22153;DHT22;11242;50.536;12.688;2024-01-06T10:44:14;4.80;99.90
22153;DHT22;11242;50.536;12.688;2024-01-06T10:46:41;4.80;99.90
22153;DHT22;11242;50.536;12.688;2024-01-06T10:49:08;4.80;99.90
22153;DHT22;11242;50.536;12.688;2024-01-06T10:51:39;4.70;99.90
22153;DHT22;11242;50.536;12.688;2024-01-06T10:54:05;4.70;99.90
22153;DHT22;11242;50.536;12.688;2024-01-06T10:56:36;4.70;99.90
22153;DHT22;11242;50.536;12.688;2024-01-06T10:59:03;4.60;99.90
22153;DHT22;11242;50.536;12.688;2024-01-06T11:01:29;4.60;99.90
22153;DHT22;11242;50.536;12.688;2024-01-06T11:03:55;4.60;99.90
22153;DHT22;11242;50.536;12.688;2024-01-06T11:06:22;4.70;99.90
22153;DHT22;11242;50.536;12.688;2024-01-06T11:11:20;5.10;99.90
22153;DHT22;11242;50.536;12.688;2024-01-06T11:13:46;5.20;99.90
22153;DHT22;11242;50.536;12.688;2024-01-06T11:16:36;5.30;99.90
22153;DHT22;11242;50.536;12.688;2024-01-06T11:19:02;5.30;99.90
22153;DHT22;11242;50.536;12.688;2024-01-06T11:21:33;5.30;99.90
22153;DHT22;11242;50.536;12.688;2024-01-06T11:24:14;5.30;99.90
22153;DHT22;11242;50.536;12.688;2024-01-06T11:26:43;5.20;99.90
22153;DHT22;11242;50.536;12.688;2024-01-06T11:29:09;5.10;99.90
22153;DHT22;11242;50.536;12.688;2024-01-06T11:31:37;5.10;99.90
22153;DHT22;11242;50.536;12.688;2024-01-06T11:34:18;5.10;99.90
22153;DHT22;11242;50.536;12.688;2024-01-06T11:36:50;5.20;99.90
22153;DHT22;11242;50.536;12.688;2024-01-06T11:39:35;5.10;99.90
22153;DHT22;11242;50.536;12.688;2024-01-06T11:42:03;5.10;99.90
22153;DHT22;11242;50.536;12.688;2024-01-06T11:44:29;4.90;99.90
22153;DHT22;11242;50.536;12.688;2024-01-06T11:46:59;4.80;99.90
22153;DHT22;11242;50.536;12.688;2024-01-06T11:49:27;4.70;99.90
22153;DHT22;11242;50.536;12.688;2024-01-06T11:51:53;4.70;99.90
22153;DHT22;11242;50.536;12.688;2024-01-06T11:54:21;4.60;99.90
22153;DHT22;11242;50.536;12.688;2024-01-06T11:56:46;4.60;99.90
22153;DHT22;11242;50.536;12.688;2024-01-06T11:59:12;4.60;99.90
22153;DHT22;11242;50.536;12.688;2024-01-06T12:01:38;4.50;99.90
22153;DHT22;11242;50.536;12.688;2024-01-06T12:04:04;4.60;99.90
22153;DHT22;11242;50.536;12.688;2024-01-06T12:06:31;4.60;99.90
22153;DHT22;11242;50.536;12.688;2024-01-06T12:09:07;4.60;99.90
22153;DHT22;11242;50.536;12.688;2024-01-06T12:11:33;4.60;99.90
22153;DHT22;11242;50.536;12.688;2024-01-06T12:13:58;4.60;99.90
22153;DHT22;11242;50.536;12.688;2024-01-06T12:16:24;4.70;99.90
22153;DHT22;11242;50.536;12.688;2024-01-06T12:18:55;4.60;99.90
22153;DHT22;11242;50.536;12.688;2024-01-06T12:21:23;4.60;99.90
22153;DHT22;11242;50.536;12.688;2024-01-06T12:23:49;4.60;99.90
22153;DHT22;11242;50.536;12.688;2024-01-06T12:26:17;4.60;99.90
22153;DHT22;11242;50.536;12.688;2024-01-06T12:28:46;4.50;99.90
22153;DHT22;11242;50.536;12.688;2024-01-06T12:31:12;4.50;99.90
22153;DHT22;11242;50.536;12.688;2024-01-06T12:33:39;4.60;99.90
22153;DHT22;11242;50.536;12.688;2024-01-06T12:36:07;4.60;99.90
22153;DHT22;11242;50.536;12.688;2024-01-06T12:38:34;4.60;99.90
22153;DHT22;11242;50.536;12.688;2024-01-06T12:41:00;4.60;99.90
22153;DHT22;11242;50.536;12.688;2024-01-06T12:43:25;4.60;99.90
22153;DHT22;11242;50.536;12.688;2024-01-06T12:45:51;4.60;99.90
22153;DHT22;11242;50.536;12.688;2024-01-06T12:48:18;4.60;99.90
22153;DHT22;11242;50.536;12.688;2024-01-06T12:50:43;4.60;99.90
22153;DHT22;11242;50.536;12.688;2024-01-06T12:53:09;4.60;99.90
22153;DHT22;11242;50.536;12.688;2024-01-06T12:55:37;4.70;99.90
22153;DHT22;11242;50.536;12.688;2024-01-06T12:58:03;4.80;99.90
22153;DHT22;11242;50.536;12.688;2024-01-06T13:00:29;4.80;99.90
22153;DHT22;11242;50.536;12.688;2024-01-06T13:02:55;4.90;99.90
22153;DHT22;11242;50.536;12.688;2024-01-06T13:05:20;4.90;99.90
22153;DHT22;11242;50.536;12.688;2024-01-06T13:07:46;5.00;99.90
22153;DHT22;11242;50.536;12.688;2024-01-06T13:10:12;4.90;99.90
22153;DHT22;11242;50.536;12.688;2024-01-06T13:12:37;4.90;99.90
22153;DHT22;11242;50.536;12.688;2024-01-06T13:15:03;5.00;99.90
22153;DHT22;11242;50.536;12.688;2024-01-06T13:17:29;4.90;99.90
22153;DHT22;11242;50.536;12.688;2024-01-06T13:19:54;4.90;99.90
22153;DHT22;11242;50.536;12.688;2024-01-06T13:22:21;4.90;99.90
22153;DHT22;11242;50.536;12.688;2024-01-06T13:24:47;4.90;99.90
22153;DHT22;11242;50.536;12.688;2024-01-06T13:27:13;5.00;99.90
22153;DHT22;11242;50.536;12.688;2024-01-06T13:29:38;5.00;99.90
22153;DHT22;11242;50.536;12.688;2024-01-06T13:32:04;5.00;99.90
22153;DHT22;11242;50.536;12.688;2024-01-06T13:34:31;5.00;99.90
22153;DHT22;11242;50.536;12.688;2024-01-06T13:36:56;5.00;99.90
22153;DHT22;11242;50.536;12.688;2024-01-06T13:39:23;4.90;99.90
22153;DHT22;11242;50.536;12.688;2024-01-06T13:41:49;4.80;99.90
22153;DHT22;11242;50.536;12.688;2024-01-06T13:44:15;4.80;99.90
22153;DHT22;11242;50.536;12.688;2024-01-06T13:46:40;4.80;99.90
22153;DHT22;11242;50.536;12.688;2024-01-06T13:49:10;4.80;99.90
22153;DHT22;11242;50.536;12.688;2024-01-06T13:51:36;4.80;99.90
22153;DHT22;11242;50.536;12.688;2024-01-06T13:54:02;4.70;99.90
22153;DHT22;11242;50.536;12.688;2024-01-06T13:56:27;4.70;99.90
22153;DHT22;11242;50.536;12.688;2024-01-06T13:58:53;4.60;99.90
22153;DHT22;11242;50.536;12.688;2024-01-06T14:01:18;4.50;99.90
22153;DHT22;11242;50.536;12.688;2024-01-06T14:03:44;4.40;99.90
22153;DHT22;11242;50.536;12.688;2024-01-06T14:06:10;4.40;99.90
22153;DHT22;11242;50.536;12.688;2024-01-06T14:08:35;4.40;99.90
22153;DHT22;11242;50.536;12.688;2024-01-06T14:11:01;4.40;99.90
22153;DHT22;11242;50.536;12.688;2024-01-06T14:13:26;4.40;99.90
22153;DHT22;11242;50.536;12.688;2024-01-06T14:15:52;4.30;99.90
22153;DHT22;11242;50.536;12.688;2024-01-06T14:18:17;4.20;99.90
22153;DHT22;11242;50.536;12.688;2024-01-06T14:20:43;4.30;99.90
22153;DHT22;11242;50.536;12.688;2024-01-06T14:23:08;4.20;99.90
22153;DHT22;11242;50.536;12.688;2024-01-06T14:25:36;4.20;99.90
22153;DHT22;11242;50.536;12.688;2024-01-06T14:28:01;4.20;99.90
22153;DHT22;11242;50.536;12.688;2024-01-06T14:30:27;4.20;99.90
22153;DHT22;11242;50.536;12.688;2024-01-06T14:32:52;4.10;99.90
22153;DHT22;11242;50.536;12.688;2024-01-06T14:35:18;4.00;99.90
22153;DHT22;11242;50.536;12.688;2024-01-06T14:37:43;4.00;99.90
22153;DHT22;11242;50.536;12.688;2024-01-06T14:40:12;4.00;99.90
22153;DHT22;11242;50.536;12.688;2024-01-06T14:42:38;4.00;99.90
22153;DHT22;11242;50.536;12.688;2024-01-06T14:45:04;4.00;99.90
22153;DHT22;11242;50.536;12.688;2024-01-06T14:47:30;3.90;99.90
22153;DHT22;11242;50.536;12.688;2024-01-06T14:49:57;3.90;99.90
22153;DHT22;11242;50.536;12.688;2024-01-06T14:52:23;3.90;99.90
22153;DHT22;11242;50.536;12.688;2024-01-06T14:54:48;3.90;99.90
22153;DHT22;11242;50.536;12.688;2024-01-06T14:57:15;3.90;99.90
22153;DHT22;11242;50.536;12.688;2024-01-06T14:59:40;3.80;99.90
22153;DHT22;11242;50.536;12.688;2024-01-06T15:02:06;3.80;99.90
22153;DHT22;11242;50.536;12.688;2024-01-06T15:04:32;3.80;99.90
22153;DHT22;11242;50.536;12.688;2024-01-06T15:06:58;3.70;99.90
22153;DHT22;11242;50.536;12.688;2024-01-06T15:09:24;3.70;99.90
22153;DHT22;11242;50.536;12.688;2024-01-06T15:11:52;3.70;99.90
22153;DHT22;11242;50.536;12.688;2024-01-06T15:14:17;3.70;99.90
22153;DHT22;11242;50.536;12.688;2024-01-06T15:16:43;3.60;99.90
22153;DHT22;11242;50.536;12.688;2024-01-06T15:19:08;3.60;99.90
22153;DHT22;11242;50.536;12.688;2024-01-06T15:21:34;3.60;99.90
22153;DHT22;11242;50.536;12.688;2024-01-06T15:24:02;3.50;99.90
22153;DHT22;11242;50.536;12.688;2024-01-06T15:26:27;3.50;99.90
22153;DHT22;11242;50.536;12.688;2024-01-06T15:28:53;3.50;99.90